Terminal Aerodrome Forecast
Issued by NWS Wilmington, OH

Current Version | Previous Version | Text Only | Print | Product List | Glossary Off
Versions: 1 2 3 4 5 6 7 8 9 10 11 12 13 14 15 16 17 18 19 20 21 22 23 24 25

152
FTUS41 KILN 012032 AAC
TAFILN
TAF AMD
KILN 012032Z 0121/0218 23006KT P6SM BKN040
     FM012300 23006KT P6SM VCTS BKN040CB
     FM020200 VRB03KT P6SM VCSH BKN040
     FM021100 31005KT P6SM BKN025
     FM021600 33005KT P6SM BKN035=

USA.gov is the U.S. government's official web portal to all federal, state and local government web resources and services.